首页
METAR-TAF:

METAR-TAF

机场 :

彼尔姆, 俄罗斯

纬度: 58-00N, 经度: 056-15E, 海拔: 170米

当前天气观测

该预报发布于29分钟前的08:30 UTC
风速4节,风向西
温度 17°C
湿度 59%
气压 1016 hPa
能见度10公里或以上
散云层高于6000英尺, 积雨云.

METAR: USPP 260830Z 26002MPS 9999 SCT060CB 17/09 Q1016 R21/290150 TEMPO VRB15MPS 1100 TSRAGR SQ VV007 RMK QFE751

时间: 13:59 (08:59 UTC)

预报

该预报发布于1小时和0分钟前的07:59 UTC
预报有效从26日的 09点(UTC)到 27日的 09点(UTC)
风速6节,风向,有时为25节阵风
能见度10公里或以上
多云层高于1600英尺, 积雨云.
短暂存在
从 26日的 09点(UTC)到 26日的 20点(UTC)
雷暴, 小雨
成为
从 26日的 16点(UTC)到 26日的 18点(UTC)
风速6节,风向东北,有时为19节阵风
成为
从 26日的 20点(UTC)到 26日的 22点(UTC)
能見度: 3200
多云层高于1100英尺
轻雾
成为
从 27日的 04点(UTC)到 27日的 06点(UTC)
能见度10公里或以上
多云层高于2000英尺

TAF: USPP 260759Z 2609/2709 36003G13MPS 9999 BKN016CB TEMPO 2609/2620 -TSRA BECMG 2616/2618 05003G10MPS BECMG 2620/2622 3200 BR BKN011 BECMG 2704/2706 9999 NSW BKN020

超过4000个机场的气象观测和天气预报(METAR&TAF报告)。

可查询的气象台以黄色和红色小点在地图上表示。

将鼠标移到小点上方,可查看气象台名称。

然后点击查看天气观测和预报。

如需切换地图:点击带黑十字的绿色按钮放大地图;点击带横线的绿色按钮缩小地图;或者点击绿色箭头查看邻近地区的地图。


METAR-TAF: